sensor_id;sensor_type;location;lat;lon;timestamp;P1;durP1;ratioP1;P2;durP2;ratioP2
7213;SDS011;3648;50.614;13.830;2023-08-06T00:01:54;4.30;;;3.90;;
7213;SDS011;3648;50.614;13.830;2023-08-06T00:04:21;4.30;;;3.93;;
7213;SDS011;3648;50.614;13.830;2023-08-06T00:06:48;4.90;;;4.50;;
7213;SDS011;3648;50.614;13.830;2023-08-06T00:09:15;4.27;;;3.87;;
7213;SDS011;3648;50.614;13.830;2023-08-06T00:11:42;3.73;;;3.43;;
7213;SDS011;3648;50.614;13.830;2023-08-06T00:14:13;3.83;;;3.53;;
7213;SDS011;3648;50.614;13.830;2023-08-06T00:16:42;4.30;;;3.90;;
7213;SDS011;3648;50.614;13.830;2023-08-06T00:19:10;5.20;;;4.73;;
7213;SDS011;3648;50.614;13.830;2023-08-06T00:21:37;4.10;;;3.70;;
7213;SDS011;3648;50.614;13.830;2023-08-06T00:24:04;4.20;;;3.90;;
7213;SDS011;3648;50.614;13.830;2023-08-06T00:26:31;4.17;;;3.77;;
7213;SDS011;3648;50.614;13.830;2023-08-06T00:28:58;3.63;;;3.33;;
7213;SDS011;3648;50.614;13.830;2023-08-06T00:31:26;5.47;;;4.60;;
7213;SDS011;3648;50.614;13.830;2023-08-06T00:33:53;5.00;;;4.60;;
7213;SDS011;3648;50.614;13.830;2023-08-06T00:36:20;4.63;;;4.23;;
7213;SDS011;3648;50.614;13.830;2023-08-06T00:38:47;4.97;;;4.47;;
7213;SDS011;3648;50.614;13.830;2023-08-06T00:41:14;5.47;;;4.97;;
7213;SDS011;3648;50.614;13.830;2023-08-06T00:43:41;6.93;;;5.07;;
7213;SDS011;3648;50.614;13.830;2023-08-06T00:46:08;5.93;;;5.13;;
7213;SDS011;3648;50.614;13.830;2023-08-06T00:48:37;5.90;;;5.30;;
7213;SDS011;3648;50.614;13.830;2023-08-06T00:51:04;8.13;;;6.97;;
7213;SDS011;3648;50.614;13.830;2023-08-06T00:53:31;8.23;;;6.53;;
7213;SDS011;3648;50.614;13.830;2023-08-06T00:55:58;7.43;;;6.73;;
7213;SDS011;3648;50.614;13.830;2023-08-06T00:58:26;7.43;;;6.63;;
7213;SDS011;3648;50.614;13.830;2023-08-06T01:00:53;7.33;;;6.57;;
7213;SDS011;3648;50.614;13.830;2023-08-06T01:03:20;6.63;;;5.93;;
7213;SDS011;3648;50.614;13.830;2023-08-06T01:05:48;9.20;;;6.83;;
7213;SDS011;3648;50.614;13.830;2023-08-06T01:08:19;8.13;;;6.30;;
7213;SDS011;3648;50.614;13.830;2023-08-06T01:11:00;8.20;;;6.43;;
7213;SDS011;3648;50.614;13.830;2023-08-06T01:13:37;8.27;;;6.70;;
7213;SDS011;3648;50.614;13.830;2023-08-06T01:16:08;6.07;;;5.47;;
7213;SDS011;3648;50.614;13.830;2023-08-06T01:18:36;7.53;;;6.63;;
7213;SDS011;3648;50.614;13.830;2023-08-06T01:21:05;7.13;;;6.43;;
7213;SDS011;3648;50.614;13.830;2023-08-06T07:31:39;12.20;;;10.63;;
7213;SDS011;3648;50.614;13.830;2023-08-06T07:34:06;13.90;;;10.67;;
7213;SDS011;3648;50.614;13.830;2023-08-06T07:36:33;10.73;;;9.60;;
7213;SDS011;3648;50.614;13.830;2023-08-06T07:39:00;10.20;;;9.13;;
7213;SDS011;3648;50.614;13.830;2023-08-06T07:41:27;9.47;;;8.13;;
7213;SDS011;3648;50.614;13.830;2023-08-06T07:43:54;9.33;;;8.40;;
7213;SDS011;3648;50.614;13.830;2023-08-06T07:46:21;9.60;;;8.57;;
7213;SDS011;3648;50.614;13.830;2023-08-06T07:48:49;7.80;;;6.90;;
7213;SDS011;3648;50.614;13.830;2023-08-06T07:51:16;6.40;;;5.80;;
7213;SDS011;3648;50.614;13.830;2023-08-06T07:53:44;6.70;;;5.33;;
7213;SDS011;3648;50.614;13.830;2023-08-06T07:56:12;7.17;;;4.80;;
7213;SDS011;3648;50.614;13.830;2023-08-06T07:58:39;5.20;;;4.17;;
7213;SDS011;3648;50.614;13.830;2023-08-06T08:01:06;5.20;;;4.10;;
7213;SDS011;3648;50.614;13.830;2023-08-06T08:03:33;4.90;;;4.13;;
7213;SDS011;3648;50.614;13.830;2023-08-06T08:06:01;4.37;;;3.97;;
7213;SDS011;3648;50.614;13.830;2023-08-06T08:08:28;4.40;;;3.57;;
7213;SDS011;3648;50.614;13.830;2023-08-06T08:10:55;4.27;;;3.87;;
7213;SDS011;3648;50.614;13.830;2023-08-06T08:13:24;4.10;;;3.70;;
7213;SDS011;3648;50.614;13.830;2023-08-06T08:15:55;3.67;;;3.37;;
7213;SDS011;3648;50.614;13.830;2023-08-06T08:18:23;4.07;;;3.23;;
7213;SDS011;3648;50.614;13.830;2023-08-06T08:20:50;5.03;;;3.17;;
7213;SDS011;3648;50.614;13.830;2023-08-06T08:23:19;5.13;;;3.70;;
7213;SDS011;3648;50.614;13.830;2023-08-06T08:25:46;3.63;;;3.13;;
7213;SDS011;3648;50.614;13.830;2023-08-06T08:28:13;4.03;;;3.63;;
7213;SDS011;3648;50.614;13.830;2023-08-06T08:30:40;4.03;;;3.70;;
7213;SDS011;3648;50.614;13.830;2023-08-06T08:33:07;4.33;;;3.50;;
7213;SDS011;3648;50.614;13.830;2023-08-06T08:35:34;3.80;;;3.50;;
7213;SDS011;3648;50.614;13.830;2023-08-06T08:38:02;3.57;;;3.10;;
7213;SDS011;3648;50.614;13.830;2023-08-06T08:40:31;7.87;;;5.90;;
7213;SDS011;3648;50.614;13.830;2023-08-06T08:42:59;4.20;;;3.37;;
7213;SDS011;3648;50.614;13.830;2023-08-06T08:45:27;6.87;;;4.97;;
7213;SDS011;3648;50.614;13.830;2023-08-06T08:47:55;4.23;;;3.90;;
7213;SDS011;3648;50.614;13.830;2023-08-06T08:50:23;15.87;;;9.87;;
7213;SDS011;3648;50.614;13.830;2023-08-06T08:52:50;8.27;;;5.13;;
7213;SDS011;3648;50.614;13.830;2023-08-06T08:55:18;11.33;;;7.80;;
7213;SDS011;3648;50.614;13.830;2023-08-06T08:57:48;4.97;;;3.83;;
7213;SDS011;3648;50.614;13.830;2023-08-06T09:00:16;4.67;;;2.93;;
7213;SDS011;3648;50.614;13.830;2023-08-06T09:02:43;4.03;;;2.80;;
7213;SDS011;3648;50.614;13.830;2023-08-06T09:05:12;3.50;;;2.33;;
7213;SDS011;3648;50.614;13.830;2023-08-06T09:07:41;2.80;;;2.10;;
7213;SDS011;3648;50.614;13.830;2023-08-06T09:10:10;1.97;;;1.80;;
7213;SDS011;3648;50.614;13.830;2023-08-06T09:12:40;1.50;;;1.40;;
7213;SDS011;3648;50.614;13.830;2023-08-06T09:15:09;2.63;;;1.70;;
7213;SDS011;3648;50.614;13.830;2023-08-06T09:17:36;1.70;;;1.53;;
7213;SDS011;3648;50.614;13.830;2023-08-06T09:20:10;4.10;;;1.47;;
7213;SDS011;3648;50.614;13.830;2023-08-06T09:22:39;1.27;;;1.17;;
7213;SDS011;3648;50.614;13.830;2023-08-06T09:25:06;1.93;;;1.50;;
7213;SDS011;3648;50.614;13.830;2023-08-06T09:27:35;1.50;;;1.40;;
7213;SDS011;3648;50.614;13.830;2023-08-06T09:30:02;2.37;;;1.13;;
7213;SDS011;3648;50.614;13.830;2023-08-06T09:32:40;1.40;;;1.30;;
7213;SDS011;3648;50.614;13.830;2023-08-06T09:35:15;1.57;;;1.47;;
7213;SDS011;3648;50.614;13.830;2023-08-06T09:37:42;1.60;;;1.50;;
7213;SDS011;3648;50.614;13.830;2023-08-06T09:40:23;2.00;;;1.80;;
7213;SDS011;3648;50.614;13.830;2023-08-06T09:42:51;2.10;;;1.87;;
7213;SDS011;3648;50.614;13.830;2023-08-06T09:45:18;2.03;;;1.87;;
7213;SDS011;3648;50.614;13.830;2023-08-06T09:47:48;8.23;;;5.00;;
7213;SDS011;3648;50.614;13.830;2023-08-06T09:50:16;4.23;;;3.10;;
7213;SDS011;3648;50.614;13.830;2023-08-06T09:52:44;4.90;;;2.97;;
7213;SDS011;3648;50.614;13.830;2023-08-06T09:55:12;3.63;;;2.60;;
7213;SDS011;3648;50.614;13.830;2023-08-06T09:57:40;3.67;;;2.53;;
7213;SDS011;3648;50.614;13.830;2023-08-06T10:00:07;2.97;;;1.90;;
7213;SDS011;3648;50.614;13.830;2023-08-06T10:02:36;2.80;;;1.80;;
7213;SDS011;3648;50.614;13.830;2023-08-06T10:05:06;2.60;;;1.70;;
7213;SDS011;3648;50.614;13.830;2023-08-06T10:07:33;2.10;;;1.60;;
7213;SDS011;3648;50.614;13.830;2023-08-06T10:10:01;1.70;;;1.60;;
7213;SDS011;3648;50.614;13.830;2023-08-06T10:12:30;2.20;;;1.37;;
7213;SDS011;3648;50.614;13.830;2023-08-06T10:15:01;1.47;;;1.37;;
7213;SDS011;3648;50.614;13.830;2023-08-06T10:17:32;1.33;;;1.23;;
7213;SDS011;3648;50.614;13.830;2023-08-06T10:20:00;1.77;;;1.67;;
7213;SDS011;3648;50.614;13.830;2023-08-06T10:22:28;1.47;;;1.37;;
7213;SDS011;3648;50.614;13.830;2023-08-06T10:24:59;2.00;;;1.33;;
7213;SDS011;3648;50.614;13.830;2023-08-06T10:27:30;1.70;;;1.60;;
7213;SDS011;3648;50.614;13.830;2023-08-06T10:32:48;1.70;;;1.60;;
7213;SDS011;3648;50.614;13.830;2023-08-06T10:35:29;2.10;;;1.40;;
7213;SDS011;3648;50.614;13.830;2023-08-06T10:37:59;2.13;;;1.70;;
7213;SDS011;3648;50.614;13.830;2023-08-06T10:40:29;5.60;;;3.03;;
7213;SDS011;3648;50.614;13.830;2023-08-06T10:42:58;2.87;;;2.50;;
7213;SDS011;3648;50.614;13.830;2023-08-06T10:45:25;3.50;;;2.80;;
7213;SDS011;3648;50.614;13.830;2023-08-06T10:47:54;3.10;;;2.27;;
7213;SDS011;3648;50.614;13.830;2023-08-06T10:50:22;3.43;;;2.77;;
7213;SDS011;3648;50.614;13.830;2023-08-06T10:52:49;2.87;;;2.63;;
7213;SDS011;3648;50.614;13.830;2023-08-06T10:55:25;2.57;;;2.33;;
7213;SDS011;3648;50.614;13.830;2023-08-06T10:57:53;2.73;;;2.03;;
7213;SDS011;3648;50.614;13.830;2023-08-06T11:00:21;2.17;;;1.80;;
7213;SDS011;3648;50.614;13.830;2023-08-06T11:02:49;2.43;;;2.20;;
7213;SDS011;3648;50.614;13.830;2023-08-06T11:05:16;2.60;;;2.30;;
7213;SDS011;3648;50.614;13.830;2023-08-06T11:07:43;1.90;;;1.80;;
7213;SDS011;3648;50.614;13.830;2023-08-06T11:10:11;2.30;;;2.10;;
7213;SDS011;3648;50.614;13.830;2023-08-06T11:12:40;2.93;;;2.73;;
7213;SDS011;3648;50.614;13.830;2023-08-06T11:15:08;3.93;;;2.90;;
7213;SDS011;3648;50.614;13.830;2023-08-06T11:17:37;2.60;;;2.13;;
7213;SDS011;3648;50.614;13.830;2023-08-06T11:20:07;5.13;;;2.37;;
7213;SDS011;3648;50.614;13.830;2023-08-06T11:22:35;2.90;;;2.50;;
7213;SDS011;3648;50.614;13.830;2023-08-06T11:25:04;2.90;;;2.37;;
7213;SDS011;3648;50.614;13.830;2023-08-06T11:27:32;2.57;;;2.10;;
7213;SDS011;3648;50.614;13.830;2023-08-06T11:30:00;3.73;;;2.47;;
7213;SDS011;3648;50.614;13.830;2023-08-06T11:32:27;2.83;;;1.87;;
7213;SDS011;3648;50.614;13.830;2023-08-06T11:34:54;2.90;;;2.47;;
7213;SDS011;3648;50.614;13.830;2023-08-06T11:37:22;2.30;;;1.90;;
7213;SDS011;3648;50.614;13.830;2023-08-06T11:39:51;2.13;;;1.83;;
7213;SDS011;3648;50.614;13.830;2023-08-06T11:42:19;2.00;;;1.57;;
7213;SDS011;3648;50.614;13.830;2023-08-06T11:44:47;2.23;;;1.73;;
7213;SDS011;3648;50.614;13.830;2023-08-06T11:47:18;2.53;;;2.27;;
7213;SDS011;3648;50.614;13.830;2023-08-06T11:49:48;3.67;;;2.30;;
7213;SDS011;3648;50.614;13.830;2023-08-06T11:52:27;2.37;;;1.93;;
7213;SDS011;3648;50.614;13.830;2023-08-06T11:55:01;2.47;;;1.83;;
7213;SDS011;3648;50.614;13.830;2023-08-06T11:57:31;2.00;;;1.80;;
7213;SDS011;3648;50.614;13.830;2023-08-06T12:00:03;1.53;;;1.43;;
7213;SDS011;3648;50.614;13.830;2023-08-06T12:02:33;2.10;;;1.30;;
7213;SDS011;3648;50.614;13.830;2023-08-06T12:05:03;1.80;;;1.70;;
7213;SDS011;3648;50.614;13.830;2023-08-06T12:07:38;1.60;;;1.50;;
7213;SDS011;3648;50.614;13.830;2023-08-06T12:10:07;1.83;;;1.67;;
7213;SDS011;3648;50.614;13.830;2023-08-06T12:12:35;7.07;;;2.20;;
7213;SDS011;3648;50.614;13.830;2023-08-06T12:15:04;1.93;;;1.70;;
7213;SDS011;3648;50.614;13.830;2023-08-06T12:17:33;2.27;;;1.37;;
7213;SDS011;3648;50.614;13.830;2023-08-06T12:20:03;1.60;;;1.40;;
7213;SDS011;3648;50.614;13.830;2023-08-06T12:22:31;1.70;;;1.33;;
7213;SDS011;3648;50.614;13.830;2023-08-06T12:25:00;2.33;;;1.50;;
7213;SDS011;3648;50.614;13.830;2023-08-06T12:27:28;1.50;;;1.40;;
7213;SDS011;3648;50.614;13.830;2023-08-06T12:29:55;1.90;;;1.50;;
7213;SDS011;3648;50.614;13.830;2023-08-06T12:32:22;1.53;;;1.43;;
7213;SDS011;3648;50.614;13.830;2023-08-06T12:34:51;2.20;;;1.40;;
7213;SDS011;3648;50.614;13.830;2023-08-06T12:37:21;1.57;;;1.47;;
7213;SDS011;3648;50.614;13.830;2023-08-06T12:39:48;2.30;;;1.50;;
7213;SDS011;3648;50.614;13.830;2023-08-06T12:42:15;1.70;;;1.57;;
7213;SDS011;3648;50.614;13.830;2023-08-06T12:44:42;1.60;;;1.50;;
7213;SDS011;3648;50.614;13.830;2023-08-06T12:47:09;1.57;;;1.47;;
7213;SDS011;3648;50.614;13.830;2023-08-06T12:49:36;2.17;;;1.60;;
7213;SDS011;3648;50.614;13.830;2023-08-06T12:52:05;2.43;;;1.90;;
7213;SDS011;3648;50.614;13.830;2023-08-06T12:54:34;2.30;;;1.73;;
7213;SDS011;3648;50.614;13.830;2023-08-06T12:57:02;5.00;;;1.90;;
7213;SDS011;3648;50.614;13.830;2023-08-06T12:59:30;3.03;;;1.70;;
7213;SDS011;3648;50.614;13.830;2023-08-06T13:01:58;4.63;;;1.93;;
7213;SDS011;3648;50.614;13.830;2023-08-06T13:04:25;1.57;;;1.47;;
7213;SDS011;3648;50.614;13.830;2023-08-06T13:06:52;1.97;;;1.63;;
7213;SDS011;3648;50.614;13.830;2023-08-06T13:09:21;4.47;;;1.77;;
7213;SDS011;3648;50.614;13.830;2023-08-06T13:11:47;2.73;;;1.73;;
7213;SDS011;3648;50.614;13.830;2023-08-06T13:14:15;1.90;;;1.50;;
7213;SDS011;3648;50.614;13.830;2023-08-06T13:16:43;2.53;;;1.60;;
7213;SDS011;3648;50.614;13.830;2023-08-06T13:19:10;2.00;;;1.47;;
7213;SDS011;3648;50.614;13.830;2023-08-06T13:21:58;1.40;;;1.30;;
7213;SDS011;3648;50.614;13.830;2023-08-06T13:24:28;29.43;;;14.40;;
7213;SDS011;3648;50.614;13.830;2023-08-06T13:26:56;9.30;;;5.03;;
7213;SDS011;3648;50.614;13.830;2023-08-06T13:29:24;39.13;;;17.40;;
7213;SDS011;3648;50.614;13.830;2023-08-06T13:31:52;12.97;;;7.03;;
7213;SDS011;3648;50.614;13.830;2023-08-06T13:34:18;10.90;;;6.03;;
7213;SDS011;3648;50.614;13.830;2023-08-06T13:36:46;13.50;;;8.33;;
7213;SDS011;3648;50.614;13.830;2023-08-06T13:39:13;7.20;;;4.73;;
7213;SDS011;3648;50.614;13.830;2023-08-06T13:41:43;4.70;;;3.27;;
7213;SDS011;3648;50.614;13.830;2023-08-06T13:44:10;5.40;;;4.17;;
7213;SDS011;3648;50.614;13.830;2023-08-06T13:46:39;4.03;;;3.33;;
7213;SDS011;3648;50.614;13.830;2023-08-06T13:49:07;3.43;;;2.43;;
7213;SDS011;3648;50.614;13.830;2023-08-06T13:51:34;3.43;;;2.30;;
7213;SDS011;3648;50.614;13.830;2023-08-06T13:54:01;2.50;;;2.30;;
7213;SDS011;3648;50.614;13.830;2023-08-06T13:56:28;6.10;;;4.57;;
7213;SDS011;3648;50.614;13.830;2023-08-06T13:58:57;4.23;;;3.50;;
7213;SDS011;3648;50.614;13.830;2023-08-06T14:01:24;4.27;;;2.87;;
7213;SDS011;3648;50.614;13.830;2023-08-06T14:03:51;2.83;;;2.27;;
7213;SDS011;3648;50.614;13.830;2023-08-06T14:06:18;2.13;;;1.93;;
7213;SDS011;3648;50.614;13.830;2023-08-06T14:08:45;2.20;;;2.00;;
7213;SDS011;3648;50.614;13.830;2023-08-06T14:11:12;2.30;;;2.10;;
7213;SDS011;3648;50.614;13.830;2023-08-06T14:13:39;1.90;;;1.80;;
7213;SDS011;3648;50.614;13.830;2023-08-06T14:16:07;1.93;;;1.40;;
7213;SDS011;3648;50.614;13.830;2023-08-06T14:18:34;2.10;;;1.83;;
7213;SDS011;3648;50.614;13.830;2023-08-06T14:21:03;1.97;;;1.53;;
7213;SDS011;3648;50.614;13.830;2023-08-06T14:23:30;1.43;;;1.33;;
7213;SDS011;3648;50.614;13.830;2023-08-06T14:25:57;1.53;;;1.43;;
7213;SDS011;3648;50.614;13.830;2023-08-06T14:28:24;2.00;;;1.73;;
7213;SDS011;3648;50.614;13.830;2023-08-06T14:30:51;1.70;;;1.20;;
7213;SDS011;3648;50.614;13.830;2023-08-06T14:33:20;1.37;;;1.27;;
7213;SDS011;3648;50.614;13.830;2023-08-06T14:35:47;1.30;;;1.20;;
7213;SDS011;3648;50.614;13.830;2023-08-06T14:38:14;1.50;;;1.40;;
7213;SDS011;3648;50.614;13.830;2023-08-06T14:40:41;1.47;;;1.37;;
7213;SDS011;3648;50.614;13.830;2023-08-06T14:43:09;1.40;;;1.30;;
7213;SDS011;3648;50.614;13.830;2023-08-06T14:45:37;1.77;;;1.67;;
7213;SDS011;3648;50.614;13.830;2023-08-06T14:48:04;1.53;;;1.30;;
7213;SDS011;3648;50.614;13.830;2023-08-06T14:50:33;1.70;;;1.60;;
7213;SDS011;3648;50.614;13.830;2023-08-06T14:53:00;1.50;;;1.40;;
7213;SDS011;3648;50.614;13.830;2023-08-06T14:55:28;9.07;;;2.77;;
7213;SDS011;3648;50.614;13.830;2023-08-06T14:57:55;1.93;;;1.47;;
7213;SDS011;3648;50.614;13.830;2023-08-06T15:00:22;3.67;;;1.47;;
7213;SDS011;3648;50.614;13.830;2023-08-06T15:02:49;1.57;;;1.47;;
7213;SDS011;3648;50.614;13.830;2023-08-06T15:05:16;2.67;;;1.50;;
7213;SDS011;3648;50.614;13.830;2023-08-06T15:07:44;1.70;;;1.60;;
7213;SDS011;3648;50.614;13.830;2023-08-06T15:10:11;2.53;;;1.57;;
7213;SDS011;3648;50.614;13.830;2023-08-06T15:12:40;2.10;;;1.60;;
7213;SDS011;3648;50.614;13.830;2023-08-06T15:15:07;1.80;;;1.37;;
7213;SDS011;3648;50.614;13.830;2023-08-06T15:17:35;1.63;;;1.53;;
7213;SDS011;3648;50.614;13.830;2023-08-06T15:20:02;2.43;;;1.53;;
7213;SDS011;3648;50.614;13.830;2023-08-06T15:22:29;1.87;;;1.27;;
7213;SDS011;3648;50.614;13.830;2023-08-06T15:24:59;1.70;;;1.20;;
7213;SDS011;3648;50.614;13.830;2023-08-06T15:27:26;1.43;;;1.17;;
7213;SDS011;3648;50.614;13.830;2023-08-06T15:29:53;2.40;;;1.80;;
7213;SDS011;3648;50.614;13.830;2023-08-06T15:32:20;1.90;;;1.50;;
7213;SDS011;3648;50.614;13.830;2023-08-06T15:34:47;1.57;;;1.30;;
7213;SDS011;3648;50.614;13.830;2023-08-06T15:37:15;2.50;;;1.70;;
7213;SDS011;3648;50.614;13.830;2023-08-06T15:39:42;2.90;;;1.40;;
7213;SDS011;3648;50.614;13.830;2023-08-06T15:42:10;1.47;;;1.30;;
7213;SDS011;3648;50.614;13.830;2023-08-06T15:44:37;1.60;;;1.47;;
7213;SDS011;3648;50.614;13.830;2023-08-06T15:47:04;1.50;;;1.40;;
7213;SDS011;3648;50.614;13.830;2023-08-06T15:49:32;3.87;;;1.43;;
7213;SDS011;3648;50.614;13.830;2023-08-06T15:51:58;1.60;;;1.50;;
7213;SDS011;3648;50.614;13.830;2023-08-06T15:54:25;4.97;;;1.80;;
7213;SDS011;3648;50.614;13.830;2023-08-06T15:56:53;1.27;;;1.13;;
7213;SDS011;3648;50.614;13.830;2023-08-06T15:59:22;1.77;;;1.20;;
7213;SDS011;3648;50.614;13.830;2023-08-06T16:01:50;5.07;;;1.67;;
7213;SDS011;3648;50.614;13.830;2023-08-06T16:04:18;2.27;;;1.70;;
7213;SDS011;3648;50.614;13.830;2023-08-06T16:06:45;2.00;;;1.60;;
7213;SDS011;3648;50.614;13.830;2023-08-06T16:09:12;2.23;;;1.80;;
7213;SDS011;3648;50.614;13.830;2023-08-06T16:11:40;2.63;;;1.73;;
7213;SDS011;3648;50.614;13.830;2023-08-06T16:14:07;2.67;;;1.67;;
7213;SDS011;3648;50.614;13.830;2023-08-06T16:16:36;4.17;;;1.57;;
7213;SDS011;3648;50.614;13.830;2023-08-06T16:19:03;1.20;;;1.10;;
7213;SDS011;3648;50.614;13.830;2023-08-06T16:21:30;1.30;;;1.20;;
7213;SDS011;3648;50.614;13.830;2023-08-06T16:23:57;1.73;;;1.23;;
7213;SDS011;3648;50.614;13.830;2023-08-06T16:26:24;2.33;;;1.47;;
7213;SDS011;3648;50.614;13.830;2023-08-06T16:28:51;1.50;;;1.23;;
7213;SDS011;3648;50.614;13.830;2023-08-06T16:31:18;1.20;;;1.10;;
7213;SDS011;3648;50.614;13.830;2023-08-06T16:33:47;1.50;;;1.23;;
7213;SDS011;3648;50.614;13.830;2023-08-06T16:36:14;1.40;;;1.30;;
7213;SDS011;3648;50.614;13.830;2023-08-06T16:38:41;1.93;;;1.50;;
7213;SDS011;3648;50.614;13.830;2023-08-06T16:41:08;2.13;;;1.50;;
7213;SDS011;3648;50.614;13.830;2023-08-06T16:43:34;3.63;;;1.57;;
7213;SDS011;3648;50.614;13.830;2023-08-06T16:46:01;2.83;;;1.63;;
7213;SDS011;3648;50.614;13.830;2023-08-06T16:48:28;2.13;;;1.63;;
7213;SDS011;3648;50.614;13.830;2023-08-06T16:50:58;2.07;;;1.57;;
7213;SDS011;3648;50.614;13.830;2023-08-06T16:53:27;1.93;;;1.40;;
7213;SDS011;3648;50.614;13.830;2023-08-06T16:55:55;1.60;;;1.50;;
7213;SDS011;3648;50.614;13.830;2023-08-06T16:58:23;1.97;;;1.40;;
7213;SDS011;3648;50.614;13.830;2023-08-06T17:00:50;3.80;;;2.40;;
7213;SDS011;3648;50.614;13.830;2023-08-06T17:03:18;2.20;;;1.40;;
7213;SDS011;3648;50.614;13.830;2023-08-06T17:05:46;2.10;;;1.57;;
7213;SDS011;3648;50.614;13.830;2023-08-06T17:08:15;1.90;;;1.20;;
7213;SDS011;3648;50.614;13.830;2023-08-06T17:10:42;2.57;;;1.50;;
7213;SDS011;3648;50.614;13.830;2023-08-06T17:13:09;2.10;;;1.50;;
7213;SDS011;3648;50.614;13.830;2023-08-06T17:15:36;3.43;;;1.63;;
7213;SDS011;3648;50.614;13.830;2023-08-06T17:18:03;1.50;;;1.33;;
7213;SDS011;3648;50.614;13.830;2023-08-06T17:20:30;1.60;;;1.50;;
7213;SDS011;3648;50.614;13.830;2023-08-06T17:22:58;1.37;;;1.27;;
7213;SDS011;3648;50.614;13.830;2023-08-06T17:25:26;4.70;;;1.33;;
7213;SDS011;3648;50.614;13.830;2023-08-06T17:27:53;3.97;;;1.37;;
7213;SDS011;3648;50.614;13.830;2023-08-06T17:30:20;1.60;;;1.30;;
7213;SDS011;3648;50.614;13.830;2023-08-06T17:32:47;2.77;;;1.60;;
7213;SDS011;3648;50.614;13.830;2023-08-06T17:35:14;1.57;;;1.30;;
7213;SDS011;3648;50.614;13.830;2023-08-06T17:37:41;1.30;;;1.20;;
7213;SDS011;3648;50.614;13.830;2023-08-06T17:40:08;1.40;;;1.13;;
7213;SDS011;3648;50.614;13.830;2023-08-06T17:42:37;1.27;;;1.13;;
7213;SDS011;3648;50.614;13.830;2023-08-06T17:45:04;1.73;;;1.23;;
7213;SDS011;3648;50.614;13.830;2023-08-06T17:47:32;2.17;;;1.47;;
7213;SDS011;3648;50.614;13.830;2023-08-06T17:49:59;1.40;;;1.30;;
7213;SDS011;3648;50.614;13.830;2023-08-06T17:52:26;1.40;;;1.20;;
7213;SDS011;3648;50.614;13.830;2023-08-06T17:54:53;1.70;;;1.60;;
7213;SDS011;3648;50.614;13.830;2023-08-06T17:57:20;2.10;;;1.37;;
7213;SDS011;3648;50.614;13.830;2023-08-06T17:59:48;1.70;;;1.20;;
7213;SDS011;3648;50.614;13.830;2023-08-06T18:02:15;2.93;;;2.10;;
7213;SDS011;3648;50.614;13.830;2023-08-06T18:04:42;1.97;;;1.77;;
7213;SDS011;3648;50.614;13.830;2023-08-06T18:07:09;2.00;;;1.33;;
7213;SDS011;3648;50.614;13.830;2023-08-06T18:09:36;2.30;;;1.90;;
7213;SDS011;3648;50.614;13.830;2023-08-06T18:12:03;2.90;;;1.63;;
7213;SDS011;3648;50.614;13.830;2023-08-06T18:14:33;4.33;;;2.67;;
7213;SDS011;3648;50.614;13.830;2023-08-06T18:17:02;3.87;;;3.57;;
7213;SDS011;3648;50.614;13.830;2023-08-06T18:19:29;3.20;;;2.90;;
7213;SDS011;3648;50.614;13.830;2023-08-06T18:21:56;2.90;;;2.40;;
7213;SDS011;3648;50.614;13.830;2023-08-06T18:24:23;4.43;;;2.13;;
7213;SDS011;3648;50.614;13.830;2023-08-06T18:26:51;2.13;;;1.93;;
7213;SDS011;3648;50.614;13.830;2023-08-06T18:29:17;1.93;;;1.73;;
7213;SDS011;3648;50.614;13.830;2023-08-06T18:31:44;1.83;;;1.37;;
7213;SDS011;3648;50.614;13.830;2023-08-06T18:34:13;1.93;;;1.60;;
7213;SDS011;3648;50.614;13.830;2023-08-06T18:36:40;1.40;;;1.30;;
7213;SDS011;3648;50.614;13.830;2023-08-06T18:39:07;1.33;;;1.23;;
7213;SDS011;3648;50.614;13.830;2023-08-06T18:41:34;1.93;;;1.60;;
7213;SDS011;3648;50.614;13.830;2023-08-06T18:44:01;1.90;;;1.50;;
7213;SDS011;3648;50.614;13.830;2023-08-06T18:46:28;1.77;;;1.63;;
7213;SDS011;3648;50.614;13.830;2023-08-06T18:48:55;1.67;;;1.30;;
7213;SDS011;3648;50.614;13.830;2023-08-06T18:51:23;2.33;;;1.50;;
7213;SDS011;3648;50.614;13.830;2023-08-06T18:53:50;1.50;;;1.40;;
7213;SDS011;3648;50.614;13.830;2023-08-06T18:56:17;1.50;;;1.30;;
7213;SDS011;3648;50.614;13.830;2023-08-06T18:58:44;1.80;;;1.60;;
7213;SDS011;3648;50.614;13.830;2023-08-06T19:01:11;2.60;;;1.37;;
7213;SDS011;3648;50.614;13.830;2023-08-06T19:03:38;1.50;;;1.30;;
7213;SDS011;3648;50.614;13.830;2023-08-06T19:06:06;1.90;;;1.60;;
7213;SDS011;3648;50.614;13.830;2023-08-06T19:08:35;1.70;;;1.47;;
7213;SDS011;3648;50.614;13.830;2023-08-06T19:11:02;1.97;;;1.47;;
7213;SDS011;3648;50.614;13.830;2023-08-06T19:13:29;2.63;;;1.73;;
7213;SDS011;3648;50.614;13.830;2023-08-06T19:15:56;2.17;;;1.70;;
7213;SDS011;3648;50.614;13.830;2023-08-06T19:18:23;1.43;;;1.33;;
7213;SDS011;3648;50.614;13.830;2023-08-06T19:20:54;1.80;;;1.40;;
7213;SDS011;3648;50.614;13.830;2023-08-06T19:23:21;1.23;;;1.13;;
7213;SDS011;3648;50.614;13.830;2023-08-06T19:25:53;1.47;;;1.30;;
7213;SDS011;3648;50.614;13.830;2023-08-06T19:28:20;1.80;;;1.17;;
7213;SDS011;3648;50.614;13.830;2023-08-06T19:30:47;1.87;;;1.40;;
7213;SDS011;3648;50.614;13.830;2023-08-06T19:33:15;2.03;;;1.40;;
7213;SDS011;3648;50.614;13.830;2023-08-06T19:35:46;1.73;;;1.40;;
7213;SDS011;3648;50.614;13.830;2023-08-06T19:38:14;1.53;;;1.07;;
7213;SDS011;3648;50.614;13.830;2023-08-06T19:40:41;1.60;;;1.40;;
7213;SDS011;3648;50.614;13.830;2023-08-06T19:43:09;1.50;;;1.13;;
7213;SDS011;3648;50.614;13.830;2023-08-06T19:45:36;2.20;;;1.40;;
7213;SDS011;3648;50.614;13.830;2023-08-06T19:48:04;1.87;;;1.40;;
7213;SDS011;3648;50.614;13.830;2023-08-06T19:50:32;1.73;;;1.20;;
7213;SDS011;3648;50.614;13.830;2023-08-06T19:52:59;1.30;;;1.20;;
7213;SDS011;3648;50.614;13.830;2023-08-06T19:55:26;1.63;;;1.40;;
7213;SDS011;3648;50.614;13.830;2023-08-06T19:57:54;1.40;;;1.30;;
7213;SDS011;3648;50.614;13.830;2023-08-06T20:00:22;1.77;;;1.17;;
7213;SDS011;3648;50.614;13.830;2023-08-06T20:02:49;1.40;;;1.30;;
7213;SDS011;3648;50.614;13.830;2023-08-06T20:05:16;1.80;;;1.70;;
7213;SDS011;3648;50.614;13.830;2023-08-06T20:07:43;2.20;;;1.93;;
7213;SDS011;3648;50.614;13.830;2023-08-06T20:10:10;1.60;;;1.50;;
7213;SDS011;3648;50.614;13.830;2023-08-06T20:12:37;2.53;;;1.70;;
7213;SDS011;3648;50.614;13.830;2023-08-06T20:15:05;1.37;;;1.27;;
7213;SDS011;3648;50.614;13.830;2023-08-06T20:17:33;1.27;;;1.17;;
7213;SDS011;3648;50.614;13.830;2023-08-06T20:20:00;1.33;;;1.20;;
7213;SDS011;3648;50.614;13.830;2023-08-06T20:22:27;1.30;;;1.10;;
7213;SDS011;3648;50.614;13.830;2023-08-06T20:24:54;1.40;;;1.20;;
7213;SDS011;3648;50.614;13.830;2023-08-06T20:27:21;2.13;;;1.13;;
7213;SDS011;3648;50.614;13.830;2023-08-06T20:29:49;1.77;;;1.10;;
7213;SDS011;3648;50.614;13.830;2023-08-06T20:32:16;1.43;;;0.80;;
7213;SDS011;3648;50.614;13.830;2023-08-06T20:34:44;1.53;;;1.00;;
7213;SDS011;3648;50.614;13.830;2023-08-06T20:37:11;1.43;;;0.83;;
7213;SDS011;3648;50.614;13.830;2023-08-06T20:39:38;2.23;;;0.77;;
7213;SDS011;3648;50.614;13.830;2023-08-06T20:42:05;1.37;;;0.80;;
7213;SDS011;3648;50.614;13.830;2023-08-06T20:44:33;1.23;;;0.90;;
7213;SDS011;3648;50.614;13.830;2023-08-06T20:47:02;0.70;;;0.67;;
7213;SDS011;3648;50.614;13.830;2023-08-06T20:49:30;0.67;;;0.60;;
7213;SDS011;3648;50.614;13.830;2023-08-06T20:51:58;1.10;;;0.80;;
7213;SDS011;3648;50.614;13.830;2023-08-06T20:54:25;0.63;;;0.57;;
7213;SDS011;3648;50.614;13.830;2023-08-06T20:56:52;2.30;;;0.73;;
7213;SDS011;3648;50.614;13.830;2023-08-06T20:59:19;0.57;;;0.57;;
7213;SDS011;3648;50.614;13.830;2023-08-06T21:01:46;0.57;;;0.57;;
7213;SDS011;3648;50.614;13.830;2023-08-06T21:04:14;0.60;;;0.60;;
7213;SDS011;3648;50.614;13.830;2023-08-06T21:06:41;0.50;;;0.50;;
7213;SDS011;3648;50.614;13.830;2023-08-06T21:09:09;0.57;;;0.57;;
7213;SDS011;3648;50.614;13.830;2023-08-06T21:11:36;0.50;;;0.50;;
7213;SDS011;3648;50.614;13.830;2023-08-06T21:14:03;0.80;;;0.80;;
7213;SDS011;3648;50.614;13.830;2023-08-06T21:16:30;0.50;;;0.50;;